sensor_id;sensor_type;location;lat;lon;timestamp;P1;durP1;ratioP1;P2;durP2;ratioP2
57025;SDS011;43961;52.940;6.834;2022-08-11T00:01:21;11.57;;;9.70;;
57025;SDS011;43961;52.940;6.834;2022-08-11T00:03:52;9.07;;;8.18;;
57025;SDS011;43961;52.940;6.834;2022-08-11T00:06:26;10.85;;;8.35;;
57025;SDS011;43961;52.940;6.834;2022-08-11T00:08:55;10.98;;;8.77;;
57025;SDS011;43961;52.940;6.834;2022-08-11T00:11:30;10.40;;;9.23;;
57025;SDS011;43961;52.940;6.834;2022-08-11T00:13:59;14.80;;;9.70;;
57025;SDS011;43961;52.940;6.834;2022-08-11T00:16:27;10.90;;;9.32;;
57025;SDS011;43961;52.940;6.834;2022-08-11T00:18:54;12.30;;;9.23;;
57025;SDS011;43961;52.940;6.834;2022-08-11T00:21:21;9.73;;;8.82;;
57025;SDS011;43961;52.940;6.834;2022-08-11T00:23:53;12.93;;;9.32;;
57025;SDS011;43961;52.940;6.834;2022-08-11T00:26:21;11.88;;;10.63;;
57025;SDS011;43961;52.940;6.834;2022-08-11T00:28:48;13.33;;;10.10;;
57025;SDS011;43961;52.940;6.834;2022-08-11T00:31:30;13.27;;;9.43;;
57025;SDS011;43961;52.940;6.834;2022-08-11T00:33:58;10.88;;;9.75;;
57025;SDS011;43961;52.940;6.834;2022-08-11T00:36:29;14.68;;;10.75;;
57025;SDS011;43961;52.940;6.834;2022-08-11T00:39:18;11.35;;;10.15;;
57025;SDS011;43961;52.940;6.834;2022-08-11T00:47:17;13.45;;;10.27;;
57025;SDS011;43961;52.940;6.834;2022-08-11T01:12:28;11.82;;;10.38;;
57025;SDS011;43961;52.940;6.834;2022-08-11T01:18:38;11.57;;;10.38;;
57025;SDS011;43961;52.940;6.834;2022-08-11T01:24:16;14.68;;;11.57;;
57025;SDS011;43961;52.940;6.834;2022-08-11T01:27:25;14.70;;;11.43;;
57025;SDS011;43961;52.940;6.834;2022-08-11T01:38:41;13.13;;;11.77;;
57025;SDS011;43961;52.940;6.834;2022-08-11T01:55:29;13.88;;;12.27;;
57025;SDS011;43961;52.940;6.834;2022-08-11T01:58:11;13.60;;;12.20;;
57025;SDS011;43961;52.940;6.834;2022-08-11T02:01:01;13.68;;;11.48;;
57025;SDS011;43961;52.940;6.834;2022-08-11T02:03:54;16.08;;;14.27;;
57025;SDS011;43961;52.940;6.834;2022-08-11T02:06:47;15.70;;;13.63;;
57025;SDS011;43961;52.940;6.834;2022-08-11T02:12:17;17.52;;;12.52;;
57025;SDS011;43961;52.940;6.834;2022-08-11T02:15:35;22.73;;;14.70;;
57025;SDS011;43961;52.940;6.834;2022-08-11T02:18:17;16.15;;;14.38;;
57025;SDS011;43961;52.940;6.834;2022-08-11T02:20:53;16.75;;;13.95;;
57025;SDS011;43961;52.940;6.834;2022-08-11T02:26:22;22.55;;;14.63;;
57025;SDS011;43961;52.940;6.834;2022-08-11T02:31:40;18.42;;;14.60;;
57025;SDS011;43961;52.940;6.834;2022-08-11T02:58:57;26.48;;;16.95;;
57025;SDS011;43961;52.940;6.834;2022-08-11T03:01:51;18.83;;;16.40;;
57025;SDS011;43961;52.940;6.834;2022-08-11T03:04:24;20.40;;;15.73;;
57025;SDS011;43961;52.940;6.834;2022-08-11T03:07:04;16.25;;;14.32;;
57025;SDS011;43961;52.940;6.834;2022-08-11T03:09:45;16.40;;;13.88;;
57025;SDS011;43961;52.940;6.834;2022-08-11T03:12:29;14.73;;;13.20;;
57025;SDS011;43961;52.940;6.834;2022-08-11T03:15:26;16.60;;;13.55;;
57025;SDS011;43961;52.940;6.834;2022-08-11T03:18:17;15.57;;;14.00;;
57025;SDS011;43961;52.940;6.834;2022-08-11T03:23:43;15.55;;;13.40;;
57025;SDS011;43961;52.940;6.834;2022-08-11T03:26:38;14.75;;;13.25;;
57025;SDS011;43961;52.940;6.834;2022-08-11T03:34:54;15.25;;;13.77;;
57025;SDS011;43961;52.940;6.834;2022-08-11T03:40:37;17.33;;;15.65;;
57025;SDS011;43961;52.940;6.834;2022-08-11T04:01:06;15.60;;;14.07;;
57025;SDS011;43961;52.940;6.834;2022-08-11T04:18:05;19.38;;;16.35;;
57025;SDS011;43961;52.940;6.834;2022-08-11T04:40:43;14.00;;;12.75;;
57025;SDS011;43961;52.940;6.834;2022-08-11T04:49:37;17.80;;;16.05;;
57025;SDS011;43961;52.940;6.834;2022-08-11T04:55:44;20.48;;;18.38;;
57025;SDS011;43961;52.940;6.834;2022-08-11T04:59:17;22.85;;;19.73;;
57025;SDS011;43961;52.940;6.834;2022-08-11T05:08:54;19.23;;;17.02;;
57025;SDS011;43961;52.940;6.834;2022-08-11T05:14:03;19.40;;;17.42;;
57025;SDS011;43961;52.940;6.834;2022-08-11T05:17:10;20.33;;;18.33;;
57025;SDS011;43961;52.940;6.834;2022-08-11T05:20:17;21.63;;;19.33;;
57025;SDS011;43961;52.940;6.834;2022-08-11T05:23:03;20.92;;;18.67;;
57025;SDS011;43961;52.940;6.834;2022-08-11T05:25:49;22.67;;;19.15;;
57025;SDS011;43961;52.940;6.834;2022-08-11T05:28:49;20.98;;;18.88;;
57025;SDS011;43961;52.940;6.834;2022-08-11T05:31:40;21.52;;;19.25;;
57025;SDS011;43961;52.940;6.834;2022-08-11T05:34:51;19.33;;;17.33;;
57025;SDS011;43961;52.940;6.834;2022-08-11T05:39:59;23.05;;;20.58;;
57025;SDS011;43961;52.940;6.834;2022-08-11T05:42:52;19.90;;;17.90;;
57025;SDS011;43961;52.940;6.834;2022-08-11T05:45:40;23.88;;;21.40;;
57025;SDS011;43961;52.940;6.834;2022-08-11T05:48:30;24.70;;;22.08;;
57025;SDS011;43961;52.940;6.834;2022-08-11T05:51:17;37.30;;;22.45;;
57025;SDS011;43961;52.940;6.834;2022-08-11T05:54:02;22.75;;;20.50;;
57025;SDS011;43961;52.940;6.834;2022-08-11T05:56:51;26.27;;;23.65;;
57025;SDS011;43961;52.940;6.834;2022-08-11T05:59:23;24.27;;;21.70;;
57025;SDS011;43961;52.940;6.834;2022-08-11T06:01:49;24.73;;;21.50;;
57025;SDS011;43961;52.940;6.834;2022-08-11T06:04:18;26.30;;;21.65;;
57025;SDS011;43961;52.940;6.834;2022-08-11T06:06:50;27.98;;;21.45;;
57025;SDS011;43961;52.940;6.834;2022-08-11T06:09:31;26.55;;;19.45;;
57025;SDS011;43961;52.940;6.834;2022-08-11T06:12:00;26.08;;;23.35;;
57025;SDS011;43961;52.940;6.834;2022-08-11T06:14:28;24.77;;;22.17;;
57025;SDS011;43961;52.940;6.834;2022-08-11T06:16:56;24.42;;;21.67;;
57025;SDS011;43961;52.940;6.834;2022-08-11T06:19:29;25.85;;;22.52;;
57025;SDS011;43961;52.940;6.834;2022-08-11T06:22:04;30.33;;;21.52;;
57025;SDS011;43961;52.940;6.834;2022-08-11T06:24:31;28.98;;;21.10;;
57025;SDS011;43961;52.940;6.834;2022-08-11T06:26:59;30.33;;;22.85;;
57025;SDS011;43961;52.940;6.834;2022-08-11T06:29:27;23.52;;;20.98;;
57025;SDS011;43961;52.940;6.834;2022-08-11T06:31:59;24.02;;;20.63;;
57025;SDS011;43961;52.940;6.834;2022-08-11T06:40:29;33.40;;;19.42;;
57025;SDS011;43961;52.940;6.834;2022-08-11T06:45:50;37.55;;;20.02;;
57025;SDS011;43961;52.940;6.834;2022-08-11T06:48:21;18.23;;;16.42;;
57025;SDS011;43961;52.940;6.834;2022-08-11T06:50:49;21.98;;;17.15;;
57025;SDS011;43961;52.940;6.834;2022-08-11T06:53:36;18.55;;;16.63;;
57025;SDS011;43961;52.940;6.834;2022-08-11T06:56:03;16.30;;;14.68;;
57025;SDS011;43961;52.940;6.834;2022-08-11T06:58:49;16.92;;;15.07;;
57025;SDS011;43961;52.940;6.834;2022-08-11T07:10:24;21.98;;;13.35;;
57025;SDS011;43961;52.940;6.834;2022-08-11T07:13:15;16.98;;;13.10;;
57025;SDS011;43961;52.940;6.834;2022-08-11T07:16:04;14.90;;;12.40;;
57025;SDS011;43961;52.940;6.834;2022-08-11T07:18:32;15.77;;;11.80;;
57025;SDS011;43961;52.940;6.834;2022-08-11T07:24:15;14.00;;;11.00;;
57025;SDS011;43961;52.940;6.834;2022-08-11T07:27:07;27.42;;;12.80;;
57025;SDS011;43961;52.940;6.834;2022-08-11T07:30:03;38.00;;;12.02;;
57025;SDS011;43961;52.940;6.834;2022-08-11T07:32:34;11.25;;;10.18;;
57025;SDS011;43961;52.940;6.834;2022-08-11T07:35:11;10.70;;;9.50;;
57025;SDS011;43961;52.940;6.834;2022-08-11T07:37:42;12.07;;;10.45;;
57025;SDS011;43961;52.940;6.834;2022-08-11T07:40:13;9.07;;;8.27;;
57025;SDS011;43961;52.940;6.834;2022-08-11T07:42:43;9.75;;;8.85;;
57025;SDS011;43961;52.940;6.834;2022-08-11T07:45:10;10.60;;;9.50;;
57025;SDS011;43961;52.940;6.834;2022-08-11T07:47:56;12.80;;;8.90;;
57025;SDS011;43961;52.940;6.834;2022-08-11T07:50:41;15.65;;;10.73;;
57025;SDS011;43961;52.940;6.834;2022-08-11T07:53:27;8.63;;;7.47;;
57025;SDS011;43961;52.940;6.834;2022-08-11T07:55:55;10.27;;;7.85;;
57025;SDS011;43961;52.940;6.834;2022-08-11T07:58:22;9.63;;;8.48;;
57025;SDS011;43961;52.940;6.834;2022-08-11T08:01:07;9.10;;;7.78;;
57025;SDS011;43961;52.940;6.834;2022-08-11T08:03:53;10.43;;;8.00;;
57025;SDS011;43961;52.940;6.834;2022-08-11T08:06:38;8.40;;;6.80;;
57025;SDS011;43961;52.940;6.834;2022-08-11T08:09:23;10.07;;;7.30;;
57025;SDS011;43961;52.940;6.834;2022-08-11T08:12:08;11.38;;;7.15;;
57025;SDS011;43961;52.940;6.834;2022-08-11T08:14:53;8.55;;;7.18;;
57025;SDS011;43961;52.940;6.834;2022-08-11T08:17:39;7.25;;;6.60;;
57025;SDS011;43961;52.940;6.834;2022-08-11T08:20:17;11.23;;;7.13;;
57025;SDS011;43961;52.940;6.834;2022-08-11T08:22:51;9.70;;;6.22;;
57025;SDS011;43961;52.940;6.834;2022-08-11T08:25:24;7.78;;;6.85;;
57025;SDS011;43961;52.940;6.834;2022-08-11T08:27:52;7.78;;;6.82;;
57025;SDS011;43961;52.940;6.834;2022-08-11T08:33:03;6.78;;;4.75;;
57025;SDS011;43961;52.940;6.834;2022-08-11T08:35:29;7.50;;;4.88;;
57025;SDS011;43961;52.940;6.834;2022-08-11T08:37:58;4.63;;;4.30;;
57025;SDS011;43961;52.940;6.834;2022-08-11T08:40:25;4.00;;;3.70;;
57025;SDS011;43961;52.940;6.834;2022-08-11T08:42:55;4.43;;;3.90;;
57025;SDS011;43961;52.940;6.834;2022-08-11T08:45:23;5.55;;;4.50;;
57025;SDS011;43961;52.940;6.834;2022-08-11T08:47:58;5.50;;;4.25;;
57025;SDS011;43961;52.940;6.834;2022-08-11T08:50:26;5.63;;;4.28;;
57025;SDS011;43961;52.940;6.834;2022-08-11T08:53:25;5.50;;;3.88;;
57025;SDS011;43961;52.940;6.834;2022-08-11T08:55:57;7.57;;;3.83;;
57025;SDS011;43961;52.940;6.834;2022-08-11T08:58:24;7.45;;;5.38;;
57025;SDS011;43961;52.940;6.834;2022-08-11T09:00:52;5.72;;;4.07;;
57025;SDS011;43961;52.940;6.834;2022-08-11T09:03:20;6.97;;;4.28;;
57025;SDS011;43961;52.940;6.834;2022-08-11T09:05:47;5.95;;;3.42;;
57025;SDS011;43961;52.940;6.834;2022-08-11T09:08:16;4.85;;;3.88;;
57025;SDS011;43961;52.940;6.834;2022-08-11T09:10:45;7.40;;;3.50;;
57025;SDS011;43961;52.940;6.834;2022-08-11T09:13:32;5.00;;;3.30;;
57025;SDS011;43961;52.940;6.834;2022-08-11T09:15:59;6.45;;;3.67;;
57025;SDS011;43961;52.940;6.834;2022-08-11T09:18:26;7.43;;;3.78;;
57025;SDS011;43961;52.940;6.834;2022-08-11T09:20:52;9.27;;;3.50;;
57025;SDS011;43961;52.940;6.834;2022-08-11T09:23:19;7.35;;;3.53;;
57025;SDS011;43961;52.940;6.834;2022-08-11T09:26:03;4.13;;;3.15;;
57025;SDS011;43961;52.940;6.834;2022-08-11T09:28:48;4.47;;;3.47;;
57025;SDS011;43961;52.940;6.834;2022-08-11T09:31:14;6.10;;;3.30;;
57025;SDS011;43961;52.940;6.834;2022-08-11T09:36:11;4.30;;;3.63;;
57025;SDS011;43961;52.940;6.834;2022-08-11T09:38:56;4.43;;;3.80;;
57025;SDS011;43961;52.940;6.834;2022-08-11T09:41:45;4.40;;;3.65;;
57025;SDS011;43961;52.940;6.834;2022-08-11T09:44:11;6.60;;;3.30;;
57025;SDS011;43961;52.940;6.834;2022-08-11T09:46:56;6.13;;;3.30;;
57025;SDS011;43961;52.940;6.834;2022-08-11T09:49:23;6.82;;;3.80;;
57025;SDS011;43961;52.940;6.834;2022-08-11T09:51:51;6.38;;;3.78;;
57025;SDS011;43961;52.940;6.834;2022-08-11T09:54:17;3.92;;;3.63;;
57025;SDS011;43961;52.940;6.834;2022-08-11T09:56:44;6.72;;;3.30;;
57025;SDS011;43961;52.940;6.834;2022-08-11T09:59:28;4.25;;;3.92;;
57025;SDS011;43961;52.940;6.834;2022-08-11T10:04:26;6.25;;;3.45;;
57025;SDS011;43961;52.940;6.834;2022-08-11T10:07:01;4.35;;;3.65;;
57025;SDS011;43961;52.940;6.834;2022-08-11T10:12:13;5.30;;;3.20;;
57025;SDS011;43961;52.940;6.834;2022-08-11T10:14:53;8.38;;;4.50;;
57025;SDS011;43961;52.940;6.834;2022-08-11T10:17:47;4.75;;;4.10;;
57025;SDS011;43961;52.940;6.834;2022-08-11T10:20:35;3.40;;;3.10;;
57025;SDS011;43961;52.940;6.834;2022-08-11T10:23:03;4.43;;;3.95;;
57025;SDS011;43961;52.940;6.834;2022-08-11T10:25:48;6.38;;;3.70;;
57025;SDS011;43961;52.940;6.834;2022-08-11T10:28:33;5.03;;;4.32;;
57025;SDS011;43961;52.940;6.834;2022-08-11T10:31:00;4.85;;;3.65;;
57025;SDS011;43961;52.940;6.834;2022-08-11T10:33:47;4.82;;;3.58;;
57025;SDS011;43961;52.940;6.834;2022-08-11T10:36:37;5.55;;;3.92;;
57025;SDS011;43961;52.940;6.834;2022-08-11T10:39:17;3.92;;;3.00;;
57025;SDS011;43961;52.940;6.834;2022-08-11T10:41:45;5.63;;;3.50;;
57025;SDS011;43961;52.940;6.834;2022-08-11T10:44:31;4.15;;;3.75;;
57025;SDS011;43961;52.940;6.834;2022-08-11T10:47:04;3.40;;;3.17;;
57025;SDS011;43961;52.940;6.834;2022-08-11T10:49:49;4.13;;;3.83;;
57025;SDS011;43961;52.940;6.834;2022-08-11T10:52:35;8.43;;;3.50;;
57025;SDS011;43961;52.940;6.834;2022-08-11T10:55:22;7.70;;;3.58;;
57025;SDS011;43961;52.940;6.834;2022-08-11T10:58:07;10.77;;;3.00;;
57025;SDS011;43961;52.940;6.834;2022-08-11T11:00:54;6.63;;;3.83;;
57025;SDS011;43961;52.940;6.834;2022-08-11T11:03:26;4.05;;;3.45;;
57025;SDS011;43961;52.940;6.834;2022-08-11T11:06:00;3.75;;;2.92;;
57025;SDS011;43961;52.940;6.834;2022-08-11T11:08:51;4.43;;;4.03;;
57025;SDS011;43961;52.940;6.834;2022-08-11T11:11:22;3.42;;;3.13;;
57025;SDS011;43961;52.940;6.834;2022-08-11T11:14:14;4.07;;;3.47;;
57025;SDS011;43961;52.940;6.834;2022-08-11T11:17:02;10.00;;;4.18;;
57025;SDS011;43961;52.940;6.834;2022-08-11T11:19:33;4.28;;;3.42;;
57025;SDS011;43961;52.940;6.834;2022-08-11T11:22:03;8.43;;;3.55;;
57025;SDS011;43961;52.940;6.834;2022-08-11T11:27:23;5.38;;;3.90;;
57025;SDS011;43961;52.940;6.834;2022-08-11T11:32:31;5.65;;;3.55;;
57025;SDS011;43961;52.940;6.834;2022-08-11T11:35:23;13.20;;;3.78;;
57025;SDS011;43961;52.940;6.834;2022-08-11T11:37:59;6.43;;;3.65;;
57025;SDS011;43961;52.940;6.834;2022-08-11T11:40:25;3.63;;;3.42;;
57025;SDS011;43961;52.940;6.834;2022-08-11T11:42:53;4.90;;;3.55;;
57025;SDS011;43961;52.940;6.834;2022-08-11T11:45:21;4.40;;;3.28;;
57025;SDS011;43961;52.940;6.834;2022-08-11T11:47:49;4.35;;;3.90;;
57025;SDS011;43961;52.940;6.834;2022-08-11T11:50:30;4.80;;;4.07;;
57025;SDS011;43961;52.940;6.834;2022-08-11T11:53:05;6.13;;;3.70;;
57025;SDS011;43961;52.940;6.834;2022-08-11T11:55:33;11.57;;;4.43;;
57025;SDS011;43961;52.940;6.834;2022-08-11T11:58:00;34.03;;;4.45;;
57025;SDS011;43961;52.940;6.834;2022-08-11T12:00:45;4.53;;;3.83;;
57025;SDS011;43961;52.940;6.834;2022-08-11T12:03:32;4.10;;;3.22;;
57025;SDS011;43961;52.940;6.834;2022-08-11T12:05:59;5.43;;;3.50;;
57025;SDS011;43961;52.940;6.834;2022-08-11T12:08:26;6.65;;;4.53;;
57025;SDS011;43961;52.940;6.834;2022-08-11T12:10:54;7.18;;;3.92;;
57025;SDS011;43961;52.940;6.834;2022-08-11T12:13:41;3.85;;;3.42;;
57025;SDS011;43961;52.940;6.834;2022-08-11T12:16:12;6.18;;;4.03;;
57025;SDS011;43961;52.940;6.834;2022-08-11T12:18:40;6.55;;;4.25;;
57025;SDS011;43961;52.940;6.834;2022-08-11T12:21:07;3.88;;;3.45;;
57025;SDS011;43961;52.940;6.834;2022-08-11T12:23:35;6.68;;;3.70;;
57025;SDS011;43961;52.940;6.834;2022-08-11T12:26:21;4.22;;;3.40;;
57025;SDS011;43961;52.940;6.834;2022-08-11T12:29:10;4.57;;;3.97;;
57025;SDS011;43961;52.940;6.834;2022-08-11T12:31:37;7.40;;;3.83;;
57025;SDS011;43961;52.940;6.834;2022-08-11T12:34:05;4.55;;;3.78;;
57025;SDS011;43961;52.940;6.834;2022-08-11T12:36:40;5.25;;;3.60;;
57025;SDS011;43961;52.940;6.834;2022-08-11T12:39:12;7.80;;;4.18;;
57025;SDS011;43961;52.940;6.834;2022-08-11T12:41:44;6.55;;;3.33;;
57025;SDS011;43961;52.940;6.834;2022-08-11T12:44:30;3.97;;;3.67;;
57025;SDS011;43961;52.940;6.834;2022-08-11T12:47:16;4.25;;;3.90;;
57025;SDS011;43961;52.940;6.834;2022-08-11T12:49:48;3.88;;;3.45;;
57025;SDS011;43961;52.940;6.834;2022-08-11T12:52:35;5.47;;;4.60;;
57025;SDS011;43961;52.940;6.834;2022-08-11T12:55:11;4.45;;;3.80;;
57025;SDS011;43961;52.940;6.834;2022-08-11T12:58:03;9.77;;;4.30;;
57025;SDS011;43961;52.940;6.834;2022-08-11T13:00:42;9.30;;;4.35;;
57025;SDS011;43961;52.940;6.834;2022-08-11T13:03:27;3.25;;;3.05;;
57025;SDS011;43961;52.940;6.834;2022-08-11T13:06:12;3.65;;;3.35;;
57025;SDS011;43961;52.940;6.834;2022-08-11T13:08:39;4.57;;;3.88;;
57025;SDS011;43961;52.940;6.834;2022-08-11T13:11:06;3.83;;;3.50;;
57025;SDS011;43961;52.940;6.834;2022-08-11T13:13:51;8.52;;;3.55;;
57025;SDS011;43961;52.940;6.834;2022-08-11T13:16:21;3.92;;;3.63;;
57025;SDS011;43961;52.940;6.834;2022-08-11T13:18:49;5.25;;;4.50;;
57025;SDS011;43961;52.940;6.834;2022-08-11T13:21:15;4.53;;;4.22;;
57025;SDS011;43961;52.940;6.834;2022-08-11T13:23:44;6.85;;;4.32;;
57025;SDS011;43961;52.940;6.834;2022-08-11T13:26:11;4.40;;;3.67;;
57025;SDS011;43961;52.940;6.834;2022-08-11T13:28:38;3.95;;;3.65;;
57025;SDS011;43961;52.940;6.834;2022-08-11T13:31:04;4.65;;;3.88;;
57025;SDS011;43961;52.940;6.834;2022-08-11T13:33:40;4.85;;;3.92;;
57025;SDS011;43961;52.940;6.834;2022-08-11T13:36:08;6.13;;;3.97;;
57025;SDS011;43961;52.940;6.834;2022-08-11T13:38:34;5.60;;;4.35;;
57025;SDS011;43961;52.940;6.834;2022-08-11T13:41:01;4.32;;;3.97;;
57025;SDS011;43961;52.940;6.834;2022-08-11T13:43:47;6.10;;;4.47;;
57025;SDS011;43961;52.940;6.834;2022-08-11T13:46:15;4.85;;;3.92;;
57025;SDS011;43961;52.940;6.834;2022-08-11T13:48:45;3.40;;;3.20;;
57025;SDS011;43961;52.940;6.834;2022-08-11T13:51:11;4.57;;;3.35;;
57025;SDS011;43961;52.940;6.834;2022-08-11T13:54:08;3.60;;;3.15;;
57025;SDS011;43961;52.940;6.834;2022-08-11T13:56:40;3.58;;;3.17;;
57025;SDS011;43961;52.940;6.834;2022-08-11T13:59:08;3.25;;;2.97;;
57025;SDS011;43961;52.940;6.834;2022-08-11T14:01:40;3.85;;;3.55;;
57025;SDS011;43961;52.940;6.834;2022-08-11T14:06:58;3.13;;;2.90;;
57025;SDS011;43961;52.940;6.834;2022-08-11T14:09:29;7.82;;;4.55;;
57025;SDS011;43961;52.940;6.834;2022-08-11T14:12:01;5.47;;;2.88;;
57025;SDS011;43961;52.940;6.834;2022-08-11T14:14:51;4.70;;;3.60;;
57025;SDS011;43961;52.940;6.834;2022-08-11T14:17:24;5.20;;;3.00;;
57025;SDS011;43961;52.940;6.834;2022-08-11T14:19:53;4.18;;;3.80;;
57025;SDS011;43961;52.940;6.834;2022-08-11T14:22:20;3.45;;;2.80;;
57025;SDS011;43961;52.940;6.834;2022-08-11T14:24:46;3.80;;;3.50;;
57025;SDS011;43961;52.940;6.834;2022-08-11T14:27:15;4.13;;;3.10;;
57025;SDS011;43961;52.940;6.834;2022-08-11T14:29:42;3.85;;;3.13;;
57025;SDS011;43961;52.940;6.834;2022-08-11T14:32:09;3.42;;;3.00;;
57025;SDS011;43961;52.940;6.834;2022-08-11T14:34:42;2.72;;;2.53;;
57025;SDS011;43961;52.940;6.834;2022-08-11T14:39:42;2.78;;;2.58;;
57025;SDS011;43961;52.940;6.834;2022-08-11T14:42:15;3.20;;;3.00;;
57025;SDS011;43961;52.940;6.834;2022-08-11T14:45:06;5.10;;;3.50;;
57025;SDS011;43961;52.940;6.834;2022-08-11T14:47:56;4.03;;;3.25;;
57025;SDS011;43961;52.940;6.834;2022-08-11T14:50:29;4.28;;;3.42;;
57025;SDS011;43961;52.940;6.834;2022-08-11T14:53:01;5.25;;;3.42;;
57025;SDS011;43961;52.940;6.834;2022-08-11T14:55:36;6.15;;;3.47;;
57025;SDS011;43961;52.940;6.834;2022-08-11T14:58:24;3.83;;;3.10;;
57025;SDS011;43961;52.940;6.834;2022-08-11T15:00:54;3.63;;;2.90;;
57025;SDS011;43961;52.940;6.834;2022-08-11T15:03:22;3.63;;;3.33;;
57025;SDS011;43961;52.940;6.834;2022-08-11T15:08:20;4.68;;;4.18;;
57025;SDS011;43961;52.940;6.834;2022-08-11T15:11:10;8.45;;;3.55;;
57025;SDS011;43961;52.940;6.834;2022-08-11T15:16:26;5.10;;;3.70;;
57025;SDS011;43961;52.940;6.834;2022-08-11T15:19:12;4.20;;;3.38;;
57025;SDS011;43961;52.940;6.834;2022-08-11T15:24:22;5.28;;;3.30;;
57025;SDS011;43961;52.940;6.834;2022-08-11T15:26:48;6.32;;;3.30;;
57025;SDS011;43961;52.940;6.834;2022-08-11T15:29:35;3.63;;;3.28;;
57025;SDS011;43961;52.940;6.834;2022-08-11T15:32:21;4.15;;;3.28;;
57025;SDS011;43961;52.940;6.834;2022-08-11T15:35:07;5.40;;;3.35;;
57025;SDS011;43961;52.940;6.834;2022-08-11T15:37:54;4.70;;;4.30;;
57025;SDS011;43961;52.940;6.834;2022-08-11T15:40:30;3.78;;;3.45;;
57025;SDS011;43961;52.940;6.834;2022-08-11T15:46:10;3.30;;;3.10;;
57025;SDS011;43961;52.940;6.834;2022-08-11T15:48:55;5.25;;;3.58;;
57025;SDS011;43961;52.940;6.834;2022-08-11T15:51:32;8.80;;;3.38;;
57025;SDS011;43961;52.940;6.834;2022-08-11T15:54:02;4.93;;;3.42;;
57025;SDS011;43961;52.940;6.834;2022-08-11T15:56:36;3.53;;;3.10;;
57025;SDS011;43961;52.940;6.834;2022-08-11T15:59:10;7.47;;;3.95;;
57025;SDS011;43961;52.940;6.834;2022-08-11T16:01:56;4.15;;;3.60;;
57025;SDS011;43961;52.940;6.834;2022-08-11T16:04:45;3.67;;;3.35;;
57025;SDS011;43961;52.940;6.834;2022-08-11T16:07:16;7.07;;;4.20;;
57025;SDS011;43961;52.940;6.834;2022-08-11T16:12:24;3.83;;;2.80;;
57025;SDS011;43961;52.940;6.834;2022-08-11T16:14:57;3.85;;;3.40;;
57025;SDS011;43961;52.940;6.834;2022-08-11T16:17:46;4.75;;;3.53;;
57025;SDS011;43961;52.940;6.834;2022-08-11T16:20:21;6.18;;;3.47;;
57025;SDS011;43961;52.940;6.834;2022-08-11T16:22:50;4.68;;;3.88;;
57025;SDS011;43961;52.940;6.834;2022-08-11T16:25:19;5.32;;;3.75;;
57025;SDS011;43961;52.940;6.834;2022-08-11T16:27:57;5.25;;;3.58;;
57025;SDS011;43961;52.940;6.834;2022-08-11T16:30:31;3.80;;;3.50;;
57025;SDS011;43961;52.940;6.834;2022-08-11T16:32:59;4.50;;;3.42;;
57025;SDS011;43961;52.940;6.834;2022-08-11T16:35:28;7.45;;;3.03;;
57025;SDS011;43961;52.940;6.834;2022-08-11T16:38:15;4.03;;;3.70;;
57025;SDS011;43961;52.940;6.834;2022-08-11T16:41:08;4.85;;;4.32;;
57025;SDS011;43961;52.940;6.834;2022-08-11T16:43:45;3.83;;;3.50;;
57025;SDS011;43961;52.940;6.834;2022-08-11T16:46:31;3.42;;;3.13;;
57025;SDS011;43961;52.940;6.834;2022-08-11T16:49:18;3.67;;;3.47;;
57025;SDS011;43961;52.940;6.834;2022-08-11T16:51:56;3.58;;;3.28;;
57025;SDS011;43961;52.940;6.834;2022-08-11T16:54:22;4.43;;;3.80;;
57025;SDS011;43961;52.940;6.834;2022-08-11T16:56:48;4.30;;;3.90;;
57025;SDS011;43961;52.940;6.834;2022-08-11T16:59:19;5.47;;;3.97;;
57025;SDS011;43961;52.940;6.834;2022-08-11T17:01:53;7.25;;;3.85;;
57025;SDS011;43961;52.940;6.834;2022-08-11T17:07:26;9.82;;;4.53;;
57025;SDS011;43961;52.940;6.834;2022-08-11T17:10:15;19.30;;;3.55;;
57025;SDS011;43961;52.940;6.834;2022-08-11T17:13:15;4.20;;;3.80;;
57025;SDS011;43961;52.940;6.834;2022-08-11T17:15:48;6.57;;;3.75;;
57025;SDS011;43961;52.940;6.834;2022-08-11T17:18:31;4.82;;;4.10;;
57025;SDS011;43961;52.940;6.834;2022-08-11T17:21:19;4.43;;;3.95;;
57025;SDS011;43961;52.940;6.834;2022-08-11T17:23:49;4.78;;;4.38;;
57025;SDS011;43961;52.940;6.834;2022-08-11T17:26:32;4.80;;;3.70;;
57025;SDS011;43961;52.940;6.834;2022-08-11T17:32:05;4.38;;;3.72;;
57025;SDS011;43961;52.940;6.834;2022-08-11T17:34:54;9.95;;;5.40;;
57025;SDS011;43961;52.940;6.834;2022-08-11T17:37:41;4.53;;;4.13;;
57025;SDS011;43961;52.940;6.834;2022-08-11T17:40:09;4.55;;;4.00;;
57025;SDS011;43961;52.940;6.834;2022-08-11T17:42:37;9.15;;;4.60;;
57025;SDS011;43961;52.940;6.834;2022-08-11T17:45:24;7.65;;;4.30;;
57025;SDS011;43961;52.940;6.834;2022-08-11T17:48:11;8.73;;;4.03;;
57025;SDS011;43961;52.940;6.834;2022-08-11T17:50:50;7.43;;;5.50;;
57025;SDS011;43961;52.940;6.834;2022-08-11T17:53:40;5.70;;;4.18;;
57025;SDS011;43961;52.940;6.834;2022-08-11T17:56:26;7.32;;;4.65;;
57025;SDS011;43961;52.940;6.834;2022-08-11T17:59:14;5.85;;;4.22;;
57025;SDS011;43961;52.940;6.834;2022-08-11T18:02:00;5.97;;;4.95;;
57025;SDS011;43961;52.940;6.834;2022-08-11T18:04:46;6.13;;;4.53;;
57025;SDS011;43961;52.940;6.834;2022-08-11T18:07:14;6.95;;;4.47;;
57025;SDS011;43961;52.940;6.834;2022-08-11T18:10:05;10.90;;;5.32;;
57025;SDS011;43961;52.940;6.834;2022-08-11T18:12:51;6.07;;;5.28;;
57025;SDS011;43961;52.940;6.834;2022-08-11T18:15:37;5.50;;;4.25;;
57025;SDS011;43961;52.940;6.834;2022-08-11T18:18:23;14.05;;;4.85;;
57025;SDS011;43961;52.940;6.834;2022-08-11T18:21:08;6.47;;;4.32;;
57025;SDS011;43961;52.940;6.834;2022-08-11T18:23:54;7.45;;;6.13;;
57025;SDS011;43961;52.940;6.834;2022-08-11T18:26:40;6.10;;;4.05;;
57025;SDS011;43961;52.940;6.834;2022-08-11T18:29:28;7.35;;;4.85;;
57025;SDS011;43961;52.940;6.834;2022-08-11T18:32:15;6.35;;;5.05;;
57025;SDS011;43961;52.940;6.834;2022-08-11T18:35:01;5.90;;;5.15;;
57025;SDS011;43961;52.940;6.834;2022-08-11T18:37:48;11.35;;;5.25;;
57025;SDS011;43961;52.940;6.834;2022-08-11T18:40:33;6.43;;;4.78;;
57025;SDS011;43961;52.940;6.834;2022-08-11T18:43:19;5.32;;;4.38;;
57025;SDS011;43961;52.940;6.834;2022-08-11T18:46:06;7.43;;;3.92;;
57025;SDS011;43961;52.940;6.834;2022-08-11T18:48:54;5.05;;;4.60;;
57025;SDS011;43961;52.940;6.834;2022-08-11T18:51:45;5.00;;;4.22;;
57025;SDS011;43961;52.940;6.834;2022-08-11T18:54:31;4.25;;;3.95;;
57025;SDS011;43961;52.940;6.834;2022-08-11T18:57:19;5.95;;;4.32;;
57025;SDS011;43961;52.940;6.834;2022-08-11T19:00:04;4.97;;;4.47;;
57025;SDS011;43961;52.940;6.834;2022-08-11T19:02:49;8.35;;;5.30;;
57025;SDS011;43961;52.940;6.834;2022-08-11T19:05:35;9.52;;;5.82;;
57025;SDS011;43961;52.940;6.834;2022-08-11T19:08:22;5.68;;;5.18;;
57025;SDS011;43961;52.940;6.834;2022-08-11T19:11:20;5.63;;;4.55;;
57025;SDS011;43961;52.940;6.834;2022-08-11T19:14:07;10.23;;;5.28;;
57025;SDS011;43961;52.940;6.834;2022-08-11T19:16:53;5.53;;;4.85;;
57025;SDS011;43961;52.940;6.834;2022-08-11T19:19:40;9.73;;;5.43;;
57025;SDS011;43961;52.940;6.834;2022-08-11T19:22:26;5.45;;;4.50;;
57025;SDS011;43961;52.940;6.834;2022-08-11T19:25:12;6.40;;;4.03;;
57025;SDS011;43961;52.940;6.834;2022-08-11T19:27:58;5.47;;;4.72;;
57025;SDS011;43961;52.940;6.834;2022-08-11T19:30:43;6.38;;;4.78;;
57025;SDS011;43961;52.940;6.834;2022-08-11T19:33:28;5.38;;;4.70;;
57025;SDS011;43961;52.940;6.834;2022-08-11T19:36:14;16.95;;;5.35;;
57025;SDS011;43961;52.940;6.834;2022-08-11T19:38:59;9.23;;;4.45;;
57025;SDS011;43961;52.940;6.834;2022-08-11T19:41:43;6.43;;;4.78;;
57025;SDS011;43961;52.940;6.834;2022-08-11T19:44:29;6.00;;;5.15;;